Airfield :
LOGIN :

Register | Disclaimer

   EN    FR    IT 

 










Legend :    VFR   Marginal VFR   IFR   Intensive IFR   Very Intensive IFR
Visi :
Ceiling :
>= 8 km
>= 3000ft
5 to 8 km
1000 to 3000 ft
1500m to 5 km
500 to 1000 ft
800 to 1500m
200 to 500 ft
< 800m
< 200 ft
Symbols :   Thunderstorms  Fog  Heavy snow  Heavy precipitations  Wind > 20 kt
SIGMETs :     Misc.  Thunderstorms  Icing  Turbulence  Mountain Waves  Volcanic Ashes







- Airport Elevation : 935 ft


EBFS - Florennes

CURRENT METAR :
  • 190425Z AUTO 30007KT 9999 OVC044/// 04/01 Q1018 BLU

EXPIRED METARs :
  • 190355Z AUTO 29006KT 9999 OVC044/// 05/03 Q1018 BLU
  • 190325Z AUTO 28006KT 9999 FEW035/// OVC047/// 05/03 Q1018 BLU
  • 190303Z AUTO 28007KT 7000 FEW032/// BKN042/// OVC048/// 05/03 Q1017 WHT
  • 190255Z AUTO 28006KT 9000 FEW032/// BKN040/// OVC047/// 05/03 Q1017 BLU
  • 190225Z AUTO 31006KT 9999 BKN041/// BKN047/// 05/03 Q1017 BLU
  • 190155Z AUTO 29007KT 9000 OVC043/// 05/04 Q1017 BLU
  • 190143Z AUTO 29008KT 8000 FEW005/// BKN045/// 05/04 Q1017 BLU

Expired Forecast.
No reported NOTAMs for that airfield.



MET'MAP, your aeronautical weather chart ! - Copyright ORBIFLY December 2007 - Disclaimer

ORBIFLY MET'MAP TEAM :

Programming & Development : Alexandra Zaïnal
Concept & Development : Baudouin d'Aumeries
Co-Development & Prog : Marc-Olivier Méhu
Technical & hardware support : Manuel Goepfert

Contact : metmap@orbifly.com




SOURCES & CREDITS :

   NOAA